Current Weather

Abadan

Abadan, Iran (OIAA)

Report from: Sunday, November 27, 2022 7:00 AM UTC
Current time: Sunday, November 27, 2022 7:52 AM UTC

Nearby weather
Weather history
Weather forecast

Temperature25.0°C (77.0°F)
Dew point15.0°C (59.0°F)
Winds 10 kts (5.1 m/s, 11.5 mph) Northeast (40°)
Clouds Sky clear
Altimeter30.03 in.Hg (1017 mB)
Relative humidity54 %
Density altitude1,268 ft. (387 m)
Remarks Ceiling and visibility OK
Flight conditions Visual Meteorological Conditions
Raw dataOIAA 270700Z 04010KT CAVOK 25/15 Q1017
An error has occurred. This application may no longer respond until reloaded. Reload 🗙